createdAt,value
2023-03-03T00:00:47.715Z,42.78
2023-03-03T00:03:20.752Z,38.55
2023-03-03T00:05:47.566Z,42.60
2023-03-03T00:08:14.224Z,43.83
2023-03-03T00:10:41.258Z,50.15
2023-03-03T00:13:38.962Z,45.88
2023-03-03T00:16:23.065Z,40.55
2023-03-03T00:18:50.163Z,41.47
2023-03-03T00:21:30.761Z,45.70
2023-03-03T00:24:19.412Z,42.55
2023-03-03T00:26:48.159Z,43.95
2023-03-03T00:29:27.070Z,43.83
2023-03-03T00:31:54.098Z,46.17
2023-03-03T00:34:28.663Z,47.83
2023-03-03T00:36:57.784Z,37.50
2023-03-03T00:39:40.046Z,44.28
2023-03-03T00:42:15.207Z,49.72
2023-03-03T00:44:47.453Z,43.30
2023-03-03T00:47:14.068Z,44.63
2023-03-03T00:49:41.732Z,43.90
2023-03-03T00:52:17.758Z,45.35
2023-03-03T00:54:44.786Z,41.42
2023-03-03T00:57:12.772Z,42.25
2023-03-03T00:59:41.416Z,45.10
2023-03-03T01:02:09.047Z,48.03
2023-03-03T01:04:36.392Z,45.33
2023-03-03T01:07:03.379Z,43.45
2023-03-03T01:09:30.090Z,49.63
2023-03-03T01:11:56.910Z,44.33
2023-03-03T01:14:23.788Z,47.72
2023-03-03T01:16:51.347Z,40.40
2023-03-03T01:19:18.183Z,43.53
2023-03-03T01:21:44.888Z,47.05
2023-03-03T01:24:11.623Z,39.90
2023-03-03T01:26:38.560Z,46.50
2023-03-03T01:29:05.392Z,47.42
2023-03-03T01:31:32.322Z,45.22
2023-03-03T01:33:59.184Z,44.42
2023-03-03T01:36:27.641Z,46.17
2023-03-03T01:38:54.793Z,42.88
2023-03-03T01:41:21.785Z,45.60
2023-03-03T01:43:50.562Z,41.58
2023-03-03T01:46:42.374Z,39.75
2023-03-03T01:49:21.566Z,45.88
2023-03-03T01:51:54.458Z,43.92
2023-03-03T01:54:33.928Z,47.13
2023-03-03T01:57:04.630Z,43.25
2023-03-03T01:59:35.677Z,45.20
2023-03-03T02:02:03.160Z,46.95
2023-03-03T02:04:29.906Z,48.03
2023-03-03T02:07:04.450Z,44.03
2023-03-03T02:09:55.864Z,45.17
2023-03-03T02:12:31.124Z,42.88
2023-03-03T02:14:57.821Z,46.50
2023-03-03T02:17:24.693Z,46.40
2023-03-03T02:20:08.443Z,47.03
2023-03-03T02:22:46.482Z,43.60
2023-03-03T02:25:20.968Z,45.55
2023-03-03T02:27:47.681Z,46.33
2023-03-03T02:30:19.329Z,46.28
2023-03-03T02:32:46.116Z,40.80
2023-03-03T02:35:32.129Z,43.92
2023-03-03T02:38:22.862Z,45.65
2023-03-03T02:41:00.648Z,53.20
2023-03-03T02:43:32.239Z,43.80
2023-03-03T02:45:58.999Z,47.10
2023-03-03T02:48:25.681Z,43.58
2023-03-03T02:50:52.877Z,47.35
2023-03-03T02:53:19.685Z,43.00
2023-03-03T02:55:46.445Z,54.50
2023-03-03T02:58:13.101Z,46.60
2023-03-03T03:00:39.933Z,45.47
2023-03-03T03:03:06.648Z,45.03
2023-03-03T03:05:34.730Z,45.53
2023-03-03T03:08:03.412Z,46.78
2023-03-03T03:10:31.175Z,49.35
2023-03-03T03:12:58.226Z,51.72
2023-03-03T03:15:25.115Z,45.92
2023-03-03T03:17:51.836Z,45.13
2023-03-03T03:20:19.078Z,44.47
2023-03-03T03:22:46.149Z,45.53
2023-03-03T03:25:12.851Z,49.40
2023-03-03T03:27:40.102Z,47.30
2023-03-03T03:30:07.645Z,46.70
2023-03-03T03:32:35.162Z,49.45
2023-03-03T03:35:01.984Z,46.10
2023-03-03T03:37:28.957Z,51.80
2023-03-03T03:39:56.396Z,51.78
2023-03-03T03:42:23.668Z,52.00
2023-03-03T03:44:51.688Z,48.38
2023-03-03T03:47:18.973Z,49.83
2023-03-03T03:49:45.876Z,50.33
2023-03-03T03:52:13.188Z,47.72
2023-03-03T03:54:39.975Z,48.80
2023-03-03T03:57:06.667Z,43.28
2023-03-03T03:59:33.653Z,54.95
2023-03-03T04:02:00.436Z,48.55
2023-03-03T04:04:27.204Z,51.55
2023-03-03T04:06:54.158Z,50.22
2023-03-03T04:09:21.074Z,54.78
2023-03-03T04:11:48.049Z,53.45
2023-03-03T04:14:15.379Z,45.95
2023-03-03T04:16:42.443Z,49.35
2023-03-03T04:19:10.003Z,48.55
2023-03-03T04:21:38.384Z,45.92
2023-03-03T04:24:05.748Z,48.33
2023-03-03T04:26:33.812Z,47.42
2023-03-03T04:29:02.860Z,49.88
2023-03-03T04:31:30.123Z,51.53
2023-03-03T04:33:57.199Z,50.05
2023-03-03T04:36:24.581Z,51.05
2023-03-03T04:38:51.404Z,55.80
2023-03-03T04:41:18.552Z,49.75
2023-03-03T04:43:45.568Z,52.22
2023-03-03T04:46:13.828Z,54.28
2023-03-03T04:48:40.561Z,48.67
2023-03-03T04:51:07.348Z,50.72
2023-03-03T04:53:38.290Z,50.05
2023-03-03T04:56:06.403Z,49.47
2023-03-03T04:58:33.197Z,49.72
2023-03-03T05:00:59.978Z,48.63
2023-03-03T05:03:28.982Z,53.28
2023-03-03T05:05:55.928Z,50.80
2023-03-03T05:08:23.233Z,53.53
2023-03-03T05:10:54.594Z,45.28
2023-03-03T05:13:21.455Z,49.57
2023-03-03T05:15:53.030Z,59.42
2023-03-03T05:18:20.310Z,51.38
2023-03-03T05:20:47.146Z,48.00
2023-03-03T05:23:14.180Z,50.08
2023-03-03T05:25:42.374Z,53.42
2023-03-03T05:28:10.567Z,49.22
2023-03-03T05:30:37.856Z,53.65
2023-03-03T05:33:05.315Z,55.78
2023-03-03T05:35:32.301Z,49.72
2023-03-03T05:37:58.952Z,45.83
2023-03-03T05:40:27.172Z,55.22
2023-03-03T05:42:53.943Z,49.58
2023-03-03T05:45:21.324Z,48.45
2023-03-03T05:47:48.460Z,47.47
2023-03-03T05:50:15.936Z,46.88
2023-03-03T05:52:42.763Z,53.28
2023-03-03T05:55:10.098Z,49.47
2023-03-03T05:57:36.728Z,55.58
2023-03-03T06:00:06.024Z,51.95
2023-03-03T06:02:39.300Z,49.63
2023-03-03T06:05:06.837Z,50.42
2023-03-03T06:07:33.499Z,51.72
2023-03-03T06:10:00.429Z,50.47
2023-03-03T06:12:28.995Z,49.97
2023-03-03T06:14:55.761Z,57.33
2023-03-03T06:17:22.432Z,59.65
2023-03-03T06:19:49.048Z,55.85
2023-03-03T06:22:15.678Z,52.13
2023-03-03T06:24:42.372Z,53.92
2023-03-03T06:27:09.720Z,55.65
2023-03-03T06:29:36.446Z,54.60
2023-03-03T06:32:03.433Z,55.90
2023-03-03T06:34:30.312Z,48.22
2023-03-03T06:36:57.246Z,52.95
2023-03-03T06:39:23.966Z,53.15
2023-03-03T06:41:50.684Z,54.53
2023-03-03T06:44:17.485Z,54.17
2023-03-03T06:46:44.098Z,51.00
2023-03-03T06:49:10.731Z,51.53
2023-03-03T06:51:39.991Z,55.28
2023-03-03T06:54:19.450Z,47.25
2023-03-03T06:56:47.380Z,53.35
2023-03-03T06:59:23.395Z,54.75
2023-03-03T07:01:51.526Z,52.60
2023-03-03T07:04:29.341Z,55.15
2023-03-03T07:06:58.552Z,51.95
2023-03-03T07:09:28.620Z,57.58
2023-03-03T07:12:02.485Z,53.58
2023-03-03T07:14:30.433Z,53.72
2023-03-03T07:17:00.758Z,50.65
2023-03-03T07:19:34.301Z,52.13
2023-03-03T07:22:14.471Z,55.83
2023-03-03T07:24:42.400Z,57.53
2023-03-03T07:27:19.985Z,54.42
2023-03-03T07:29:51.934Z,52.88
2023-03-03T07:32:37.357Z,54.35
2023-03-03T07:35:24.626Z,50.28
2023-03-03T07:37:51.556Z,52.40
2023-03-03T07:40:35.999Z,56.65
2023-03-03T07:43:30.448Z,49.85
2023-03-03T07:46:15.104Z,52.63
2023-03-03T07:48:42.942Z,51.80
2023-03-03T07:51:50.021Z,50.50
2023-03-03T07:54:29.828Z,49.80
2023-03-03T07:57:03.168Z,53.05
2023-03-03T07:59:37.102Z,52.35
2023-03-03T08:02:16.401Z,57.20
2023-03-03T08:04:50.931Z,46.83
2023-03-03T08:07:19.756Z,60.80
2023-03-03T08:10:00.830Z,46.03
2023-03-03T08:12:42.979Z,52.58
2023-03-03T08:15:22.832Z,50.10
2023-03-03T08:17:50.972Z,46.42
2023-03-03T08:20:51.156Z,50.60
2023-03-03T08:23:19.208Z,50.75
2023-03-03T08:25:47.101Z,58.03
2023-03-03T08:28:14.716Z,54.78
2023-03-03T08:30:42.090Z,58.13
2023-03-03T08:33:08.780Z,59.42
2023-03-03T08:35:35.498Z,48.83
2023-03-03T08:38:02.297Z,51.97
2023-03-03T08:40:28.918Z,49.13
2023-03-03T08:42:55.628Z,54.33
2023-03-03T08:45:22.266Z,49.78
2023-03-03T08:47:48.917Z,56.13
2023-03-03T08:50:16.038Z,45.88
2023-03-03T08:52:43.176Z,58.08
2023-03-03T08:55:10.138Z,49.13
2023-03-03T08:57:36.844Z,48.22
2023-03-03T09:00:04.048Z,48.25
2023-03-03T09:02:30.719Z,48.50
2023-03-03T09:04:57.417Z,54.05
2023-03-03T09:07:24.072Z,48.45
2023-03-03T09:09:50.821Z,52.47
2023-03-03T09:12:28.700Z,50.05
2023-03-03T09:15:00.186Z,47.17
2023-03-03T09:17:35.519Z,46.67
2023-03-03T09:20:33.710Z,52.53
2023-03-03T09:23:22.047Z,49.03
2023-03-03T09:25:48.699Z,50.85
2023-03-03T09:28:33.539Z,45.13
2023-03-03T09:31:02.297Z,49.42
2023-03-03T09:33:40.397Z,53.47
2023-03-03T09:36:35.420Z,50.40
2023-03-03T09:39:18.373Z,45.13
2023-03-03T09:42:09.432Z,48.85
2023-03-03T09:44:46.249Z,44.45
2023-03-03T09:47:45.072Z,49.42
2023-03-03T09:50:34.883Z,47.55
2023-03-03T09:53:38.672Z,44.88
2023-03-03T09:56:30.571Z,45.25
2023-03-03T09:59:12.428Z,37.10
2023-03-03T10:02:11.409Z,46.33
2023-03-03T10:04:41.123Z,44.35
2023-03-03T10:08:01.653Z,41.28
2023-03-03T10:11:03.773Z,41.00
2023-03-03T10:13:52.050Z,40.35
2023-03-03T10:16:37.410Z,40.50
2023-03-03T10:19:10.012Z,33.80
2023-03-03T10:21:50.065Z,33.35
2023-03-03T10:24:29.454Z,31.30
2023-03-03T10:27:13.446Z,40.85
2023-03-03T10:30:08.320Z,29.83
2023-03-03T10:32:38.640Z,35.25
2023-03-03T10:35:14.763Z,34.90
2023-03-03T10:37:52.837Z,35.95
2023-03-03T10:40:44.124Z,34.35
2023-03-03T10:43:13.749Z,34.22
2023-03-03T10:45:59.045Z,33.30
2023-03-03T10:48:45.186Z,33.20
2023-03-03T10:51:36.704Z,35.70
2023-03-03T10:54:06.307Z,34.28
2023-03-03T10:56:57.989Z,37.55
2023-03-03T10:59:40.974Z,37.38
2023-03-03T11:02:16.797Z,39.47
2023-03-03T11:05:02.318Z,36.50
2023-03-03T11:07:39.229Z,32.42
2023-03-03T11:10:18.771Z,35.95
2023-03-03T11:13:11.040Z,34.05
2023-03-03T11:15:56.344Z,32.00
2023-03-03T11:18:39.256Z,36.55
2023-03-03T11:21:41.655Z,35.15
2023-03-03T11:24:25.104Z,28.92
2023-03-03T11:27:06.865Z,38.00
2023-03-03T11:30:10.959Z,35.55
2023-03-03T11:33:03.447Z,39.20
2023-03-03T11:35:36.419Z,32.40
2023-03-03T11:38:31.825Z,35.95
2023-03-03T11:41:18.353Z,30.58
2023-03-03T11:43:49.286Z,31.48
2023-03-03T11:46:26.286Z,35.13
2023-03-03T11:49:02.264Z,33.83
2023-03-03T11:51:40.803Z,33.63
2023-03-03T11:54:26.185Z,36.97
2023-03-03T11:57:05.557Z,35.42
2023-03-03T11:59:44.600Z,32.00
2023-03-03T12:02:27.809Z,36.22
2023-03-03T12:05:05.628Z,34.83
2023-03-03T12:07:38.246Z,34.55
2023-03-03T12:10:18.043Z,29.02
2023-03-03T12:12:52.660Z,30.98
2023-03-03T12:15:23.495Z,31.33
2023-03-03T12:18:47.381Z,37.80
2023-03-03T12:21:43.654Z,33.15
2023-03-03T12:24:10.351Z,33.47
2023-03-03T12:27:03.564Z,36.13
2023-03-03T12:29:30.351Z,30.83
2023-03-03T12:32:09.278Z,33.67
2023-03-03T12:34:46.255Z,38.58
2023-03-03T12:37:19.100Z,32.63
2023-03-03T12:39:58.547Z,30.38
2023-03-03T12:43:12.950Z,29.38
2023-03-03T12:46:00.464Z,30.13
2023-03-03T12:48:46.794Z,31.38
2023-03-03T12:51:13.634Z,29.48
2023-03-03T12:54:00.453Z,32.50
2023-03-03T12:56:50.426Z,30.45
2023-03-03T12:59:29.882Z,35.47
2023-03-03T13:02:14.962Z,30.35
2023-03-03T13:05:23.518Z,25.88
2023-03-03T13:08:31.405Z,29.25
2023-03-03T13:11:22.342Z,30.63
2023-03-03T13:14:02.918Z,32.25
2023-03-03T13:16:41.508Z,29.15
2023-03-03T13:19:20.844Z,28.52
2023-03-03T13:22:01.538Z,30.30
2023-03-03T13:24:37.624Z,30.35
2023-03-03T13:27:04.309Z,29.92
2023-03-03T13:29:37.754Z,26.77
2023-03-03T13:32:18.876Z,30.75
2023-03-03T13:35:00.452Z,28.60
2023-03-03T13:37:37.986Z,32.20
2023-03-03T13:40:13.963Z,29.40
2023-03-03T13:42:46.679Z,29.02
2023-03-03T13:45:35.213Z,28.30
2023-03-03T13:48:33.246Z,26.35
2023-03-03T13:51:35.935Z,24.77
2023-03-03T13:56:48.569Z,28.67
2023-03-03T13:59:37.366Z,27.85
2023-03-03T14:02:38.049Z,26.45
2023-03-03T14:05:18.723Z,26.15
2023-03-03T14:07:55.215Z,24.10
2023-03-03T14:10:31.584Z,22.83
2023-03-03T14:13:22.281Z,22.38
2023-03-03T14:16:10.514Z,25.08
2023-03-03T14:18:58.260Z,26.13
2023-03-03T14:21:40.925Z,24.27
2023-03-03T14:24:23.342Z,22.17
2023-03-03T14:29:28.859Z,31.17
2023-03-03T14:32:20.323Z,26.02
2023-03-03T14:34:58.873Z,23.25
2023-03-03T14:37:46.490Z,29.35
2023-03-03T14:40:22.340Z,25.50
2023-03-03T14:42:51.939Z,26.73
2023-03-03T14:45:37.032Z,27.60
2023-03-03T14:48:22.974Z,29.30
2023-03-03T14:51:27.800Z,29.60
2023-03-03T14:53:56.919Z,30.60
2023-03-03T14:56:28.741Z,24.33
2023-03-03T14:59:17.069Z,33.13
2023-03-03T15:01:44.070Z,29.45
2023-03-03T15:04:25.267Z,28.55
2023-03-03T15:06:54.643Z,26.02
2023-03-03T15:09:45.723Z,26.77
2023-03-03T15:12:25.914Z,25.90
2023-03-03T15:15:20.146Z,25.90
2023-03-03T15:17:49.856Z,27.83
2023-03-03T15:20:44.081Z,26.42
2023-03-03T15:23:28.149Z,28.80
2023-03-03T15:26:02.447Z,27.77
2023-03-03T15:29:06.189Z,27.25
2023-03-03T15:31:57.415Z,26.63
2023-03-03T15:35:00.307Z,27.23
2023-03-03T15:37:48.775Z,22.98
2023-03-03T15:40:28.983Z,27.42
2023-03-03T15:43:14.632Z,25.38
2023-03-03T15:45:53.265Z,27.38
2023-03-03T15:48:31.250Z,23.35
2023-03-03T15:51:11.881Z,26.23
2023-03-03T15:54:01.982Z,27.90
2023-03-03T15:56:34.775Z,25.40
2023-03-03T15:59:42.381Z,30.27
2023-03-03T16:02:16.204Z,25.80
2023-03-03T16:05:03.462Z,26.58
2023-03-03T16:08:14.326Z,30.40
2023-03-03T16:10:57.079Z,25.45
2023-03-03T16:13:23.632Z,28.58
2023-03-03T16:15:53.637Z,27.50
2023-03-03T16:18:20.348Z,26.75
2023-03-03T16:20:57.321Z,29.88
2023-03-03T16:23:47.253Z,29.02
2023-03-03T16:26:41.013Z,27.88
2023-03-03T16:29:10.535Z,28.73
2023-03-03T16:32:06.331Z,28.08
2023-03-03T16:35:00.506Z,30.77
2023-03-03T16:37:36.639Z,29.95
2023-03-03T16:40:14.858Z,29.85
2023-03-03T16:42:41.516Z,33.30
2023-03-03T16:45:26.878Z,28.73
2023-03-03T16:48:11.607Z,28.95
2023-03-03T16:51:10.743Z,31.88
2023-03-03T16:53:45.616Z,29.63
2023-03-03T16:56:23.966Z,29.83
2023-03-03T16:58:57.245Z,25.23
2023-03-03T17:01:48.663Z,26.33
2023-03-03T17:04:21.654Z,30.70
2023-03-03T17:07:00.123Z,28.50
2023-03-03T17:10:02.022Z,29.85
2023-03-03T17:12:49.827Z,29.85
2023-03-03T17:15:36.393Z,27.90
2023-03-03T17:18:25.846Z,28.05
2023-03-03T17:20:59.083Z,30.25
2023-03-03T17:23:40.901Z,28.50
2023-03-03T17:26:28.411Z,29.60
2023-03-03T17:29:01.005Z,30.08
2023-03-03T17:31:48.813Z,29.88
2023-03-03T17:35:03.071Z,29.42
2023-03-03T17:38:11.091Z,29.50
2023-03-03T17:40:46.716Z,37.53
2023-03-03T17:43:34.844Z,32.90
2023-03-03T17:46:05.177Z,32.03
2023-03-03T17:48:49.118Z,33.47
2023-03-03T17:51:24.359Z,33.10
2023-03-03T17:54:27.523Z,28.17
2023-03-03T17:57:31.407Z,33.05
2023-03-03T18:00:19.365Z,30.08
2023-03-03T18:02:49.044Z,31.85
2023-03-03T18:05:43.286Z,32.05
2023-03-03T18:08:32.291Z,29.95
2023-03-03T18:11:38.153Z,33.28
2023-03-03T18:14:13.644Z,30.50
2023-03-03T18:17:08.265Z,32.05
2023-03-03T18:19:56.932Z,35.20
2023-03-03T18:22:30.722Z,30.52
2023-03-03T18:25:08.509Z,28.65
2023-03-03T18:27:40.828Z,35.50
2023-03-03T18:30:24.672Z,31.63
2023-03-03T18:32:57.054Z,32.97
2023-03-03T18:37:54.803Z,32.35
2023-03-03T18:40:24.416Z,29.35
2023-03-03T18:42:53.868Z,35.72
2023-03-03T18:45:20.492Z,36.38
2023-03-03T18:48:05.519Z,36.67
2023-03-03T18:50:36.604Z,32.95
2023-03-03T18:53:28.604Z,42.47
2023-03-03T18:56:01.067Z,31.25
2023-03-03T18:58:42.432Z,39.20
2023-03-03T19:01:12.056Z,32.75
2023-03-03T19:03:47.612Z,31.90
2023-03-03T19:06:52.615Z,37.33
2023-03-03T19:09:40.561Z,35.95
2023-03-03T19:12:11.318Z,32.90
2023-03-03T19:14:40.367Z,32.65
2023-03-03T19:17:20.637Z,34.33
2023-03-03T19:20:11.953Z,35.10
2023-03-03T19:22:52.426Z,38.83
2023-03-03T19:25:27.179Z,36.40
2023-03-03T19:28:11.436Z,38.55
2023-03-03T19:30:59.688Z,35.97
2023-03-03T19:34:16.476Z,30.70
2023-03-03T19:36:58.259Z,33.58
2023-03-03T19:39:37.742Z,32.77
2023-03-03T19:42:13.408Z,37.45
2023-03-03T19:45:19.801Z,39.75
2023-03-03T19:47:54.965Z,36.53
2023-03-03T19:50:34.596Z,31.27
2023-03-03T19:53:04.170Z,37.47
2023-03-03T19:55:39.834Z,33.33
2023-03-03T19:58:28.429Z,34.13
2023-03-03T20:00:59.616Z,32.38
2023-03-03T20:03:45.045Z,37.72
2023-03-03T20:06:25.046Z,33.53
2023-03-03T20:09:09.008Z,32.65
2023-03-03T20:12:02.632Z,29.60
2023-03-03T20:14:50.104Z,35.28
2023-03-03T20:17:56.508Z,36.10
2023-03-03T20:20:44.830Z,34.22
2023-03-03T20:23:23.318Z,32.53
2023-03-03T20:26:13.945Z,38.28
2023-03-03T20:29:06.628Z,35.55
2023-03-03T20:31:51.403Z,37.63
2023-03-03T20:34:51.441Z,37.03
2023-03-03T20:37:31.067Z,29.92
2023-03-03T20:40:19.617Z,36.03
2023-03-03T20:43:06.935Z,41.97
2023-03-03T20:45:55.534Z,35.65
2023-03-03T20:49:01.740Z,37.92
2023-03-03T20:51:31.412Z,36.55
2023-03-03T20:54:11.002Z,40.50
2023-03-03T20:56:46.788Z,40.05
2023-03-03T20:59:19.490Z,37.20
2023-03-03T21:01:55.626Z,37.17
2023-03-03T21:04:25.249Z,38.00
2023-03-03T21:06:52.357Z,38.90
2023-03-03T21:09:31.413Z,34.20
2023-03-03T21:12:00.710Z,37.10
2023-03-03T21:14:34.536Z,39.60
2023-03-03T21:17:27.698Z,38.78
2023-03-03T21:19:54.380Z,35.42
2023-03-03T21:22:21.393Z,34.90
2023-03-03T21:24:48.033Z,34.67
2023-03-03T21:27:32.333Z,36.85
2023-03-03T21:30:11.847Z,32.33
2023-03-03T21:32:48.108Z,37.25
2023-03-03T21:35:21.799Z,37.53
2023-03-03T21:37:50.991Z,39.67
2023-03-03T21:40:20.921Z,36.30
2023-03-03T21:42:47.683Z,36.25
2023-03-03T21:45:16.480Z,37.33
2023-03-03T21:47:43.112Z,33.90
2023-03-03T21:50:11.519Z,39.97
2023-03-03T21:52:38.422Z,34.72
2023-03-03T21:55:06.140Z,39.28
2023-03-03T21:57:32.804Z,39.47
2023-03-03T21:59:59.524Z,38.20
2023-03-03T22:02:26.288Z,43.05
2023-03-03T22:04:53.305Z,37.80
2023-03-03T22:07:19.951Z,43.38
2023-03-03T22:09:46.589Z,38.45
2023-03-03T22:12:13.245Z,42.15
2023-03-03T22:14:39.907Z,36.33
2023-03-03T22:17:06.511Z,48.28
2023-03-03T22:19:34.313Z,43.75
2023-03-03T22:22:00.983Z,45.83
2023-03-03T22:24:27.693Z,42.55
2023-03-03T22:26:54.303Z,43.95
2023-03-03T22:29:23.061Z,43.50
2023-03-03T22:31:51.034Z,41.95
2023-03-03T22:34:17.875Z,46.35
2023-03-03T22:36:44.558Z,36.15
2023-03-03T22:39:11.367Z,41.40
2023-03-03T22:41:38.214Z,50.55
2023-03-03T22:44:05.102Z,51.53
2023-03-03T22:46:31.817Z,51.03
2023-03-03T22:48:58.464Z,40.22
2023-03-03T22:51:26.192Z,35.22
2023-03-03T22:53:53.119Z,39.88
2023-03-03T22:56:19.872Z,37.70
2023-03-03T22:58:46.533Z,48.05
2023-03-03T23:01:13.323Z,39.78
2023-03-03T23:03:40.066Z,44.42
2023-03-03T23:06:07.159Z,46.50
2023-03-03T23:08:33.805Z,40.10
2023-03-03T23:11:00.515Z,41.13
2023-03-03T23:13:27.373Z,40.05
2023-03-03T23:15:54.164Z,47.30
2023-03-03T23:18:20.774Z,47.17
2023-03-03T23:20:47.617Z,44.50
2023-03-03T23:23:14.301Z,39.35
2023-03-03T23:25:40.916Z,33.22
2023-03-03T23:28:08.300Z,38.00
2023-03-03T23:30:35.009Z,33.90
2023-03-03T23:33:01.975Z,35.53
2023-03-03T23:35:28.655Z,30.27
2023-03-03T23:37:55.303Z,29.83
2023-03-03T23:40:22.461Z,35.63
2023-03-03T23:42:49.687Z,30.00
2023-03-03T23:45:18.009Z,27.42
2023-03-03T23:47:44.766Z,30.42
2023-03-03T23:50:13.302Z,25.92
2023-03-03T23:52:40.032Z,27.02
2023-03-03T23:55:07.435Z,28.25
2023-03-03T23:57:34.051Z,34.85
